sensor_id;sensor_type;location;lat;lon;timestamp;P1;durP1;ratioP1;P2;durP2;ratioP2
17913;SDS011;9082;50.742;8.238;2022-09-16T00:01:58;8.37;;;2.20;;
17913;SDS011;9082;50.742;8.238;2022-09-16T00:04:25;5.63;;;1.70;;
17913;SDS011;9082;50.742;8.238;2022-09-16T00:06:52;4.83;;;1.90;;
17913;SDS011;9082;50.742;8.238;2022-09-16T00:09:19;5.43;;;1.87;;
17913;SDS011;9082;50.742;8.238;2022-09-16T00:11:47;5.53;;;1.60;;
17913;SDS011;9082;50.742;8.238;2022-09-16T00:14:14;8.93;;;1.60;;
17913;SDS011;9082;50.742;8.238;2022-09-16T00:16:42;5.93;;;2.07;;
17913;SDS011;9082;50.742;8.238;2022-09-16T00:19:09;7.00;;;1.70;;
17913;SDS011;9082;50.742;8.238;2022-09-16T00:21:37;4.37;;;1.83;;
17913;SDS011;9082;50.742;8.238;2022-09-16T00:24:04;6.27;;;2.10;;
17913;SDS011;9082;50.742;8.238;2022-09-16T00:26:31;5.60;;;2.03;;
17913;SDS011;9082;50.742;8.238;2022-09-16T00:29:00;6.60;;;2.60;;
17913;SDS011;9082;50.742;8.238;2022-09-16T00:31:27;7.50;;;2.27;;
17913;SDS011;9082;50.742;8.238;2022-09-16T00:33:55;9.23;;;2.17;;
17913;SDS011;9082;50.742;8.238;2022-09-16T00:36:22;7.70;;;2.07;;
17913;SDS011;9082;50.742;8.238;2022-09-16T00:38:49;6.17;;;1.90;;
17913;SDS011;9082;50.742;8.238;2022-09-16T00:41:18;4.67;;;1.80;;
17913;SDS011;9082;50.742;8.238;2022-09-16T00:43:47;5.43;;;2.10;;
17913;SDS011;9082;50.742;8.238;2022-09-16T00:46:14;5.03;;;2.23;;
17913;SDS011;9082;50.742;8.238;2022-09-16T00:48:41;5.30;;;1.93;;
17913;SDS011;9082;50.742;8.238;2022-09-16T00:51:10;5.13;;;2.13;;
17913;SDS011;9082;50.742;8.238;2022-09-16T00:53:39;6.90;;;2.00;;
17913;SDS011;9082;50.742;8.238;2022-09-16T00:56:08;6.33;;;2.20;;
17913;SDS011;9082;50.742;8.238;2022-09-16T00:58:37;7.77;;;1.77;;
17913;SDS011;9082;50.742;8.238;2022-09-16T01:01:06;11.50;;;2.20;;
17913;SDS011;9082;50.742;8.238;2022-09-16T01:03:34;5.43;;;1.87;;
17913;SDS011;9082;50.742;8.238;2022-09-16T01:06:02;6.87;;;1.70;;
17913;SDS011;9082;50.742;8.238;2022-09-16T01:08:31;4.80;;;1.70;;
17913;SDS011;9082;50.742;8.238;2022-09-16T01:10:58;11.63;;;2.10;;
17913;SDS011;9082;50.742;8.238;2022-09-16T01:13:26;7.33;;;2.00;;
17913;SDS011;9082;50.742;8.238;2022-09-16T01:15:54;8.23;;;1.77;;
17913;SDS011;9082;50.742;8.238;2022-09-16T01:18:25;8.30;;;1.70;;
17913;SDS011;9082;50.742;8.238;2022-09-16T01:21:08;6.40;;;1.83;;
17913;SDS011;9082;50.742;8.238;2022-09-16T01:23:53;8.57;;;2.00;;
17913;SDS011;9082;50.742;8.238;2022-09-16T01:26:29;4.03;;;1.30;;
17913;SDS011;9082;50.742;8.238;2022-09-16T01:31:47;4.43;;;1.60;;
17913;SDS011;9082;50.742;8.238;2022-09-16T01:34:18;10.13;;;1.73;;
17913;SDS011;9082;50.742;8.238;2022-09-16T01:36:47;8.23;;;1.40;;
17913;SDS011;9082;50.742;8.238;2022-09-16T01:39:18;7.43;;;1.60;;
17913;SDS011;9082;50.742;8.238;2022-09-16T01:41:54;12.27;;;1.70;;
17913;SDS011;9082;50.742;8.238;2022-09-16T01:44:25;4.43;;;1.00;;
17913;SDS011;9082;50.742;8.238;2022-09-16T01:46:56;3.97;;;1.53;;
17913;SDS011;9082;50.742;8.238;2022-09-16T01:49:25;7.37;;;1.53;;
17913;SDS011;9082;50.742;8.238;2022-09-16T01:51:58;14.23;;;1.67;;
17913;SDS011;9082;50.742;8.238;2022-09-16T01:54:30;4.20;;;1.17;;
17913;SDS011;9082;50.742;8.238;2022-09-16T01:56:59;7.87;;;1.80;;
17913;SDS011;9082;50.742;8.238;2022-09-16T01:59:30;5.37;;;1.47;;
17913;SDS011;9082;50.742;8.238;2022-09-16T02:02:02;9.03;;;1.67;;
17913;SDS011;9082;50.742;8.238;2022-09-16T02:04:30;6.77;;;1.37;;
17913;SDS011;9082;50.742;8.238;2022-09-16T02:06:59;7.03;;;1.80;;
17913;SDS011;9082;50.742;8.238;2022-09-16T02:09:28;2.93;;;1.00;;
17913;SDS011;9082;50.742;8.238;2022-09-16T02:11:57;6.67;;;1.50;;
17913;SDS011;9082;50.742;8.238;2022-09-16T02:14:25;11.30;;;1.80;;
17913;SDS011;9082;50.742;8.238;2022-09-16T02:16:55;5.30;;;1.40;;
17913;SDS011;9082;50.742;8.238;2022-09-16T02:19:27;10.97;;;2.00;;
17913;SDS011;9082;50.742;8.238;2022-09-16T02:21:55;8.23;;;1.80;;
17913;SDS011;9082;50.742;8.238;2022-09-16T02:24:24;8.13;;;1.83;;
17913;SDS011;9082;50.742;8.238;2022-09-16T02:26:53;5.03;;;1.50;;
17913;SDS011;9082;50.742;8.238;2022-09-16T02:29:24;4.33;;;1.60;;
17913;SDS011;9082;50.742;8.238;2022-09-16T02:31:53;6.10;;;1.53;;
17913;SDS011;9082;50.742;8.238;2022-09-16T02:34:22;7.10;;;1.73;;
17913;SDS011;9082;50.742;8.238;2022-09-16T02:36:52;4.20;;;1.10;;
17913;SDS011;9082;50.742;8.238;2022-09-16T02:39:21;6.87;;;1.33;;
17913;SDS011;9082;50.742;8.238;2022-09-16T02:41:52;5.90;;;1.43;;
17913;SDS011;9082;50.742;8.238;2022-09-16T02:44:21;8.57;;;1.50;;
17913;SDS011;9082;50.742;8.238;2022-09-16T02:46:50;4.97;;;1.40;;
17913;SDS011;9082;50.742;8.238;2022-09-16T02:49:22;4.37;;;1.50;;
17913;SDS011;9082;50.742;8.238;2022-09-16T02:51:55;9.97;;;2.00;;
17913;SDS011;9082;50.742;8.238;2022-09-16T02:54:24;6.47;;;1.70;;
17913;SDS011;9082;50.742;8.238;2022-09-16T02:56:54;6.80;;;1.40;;
17913;SDS011;9082;50.742;8.238;2022-09-16T02:59:22;13.97;;;2.50;;
17913;SDS011;9082;50.742;8.238;2022-09-16T03:01:49;7.93;;;1.60;;
17913;SDS011;9082;50.742;8.238;2022-09-16T03:04:17;6.93;;;1.53;;
17913;SDS011;9082;50.742;8.238;2022-09-16T03:06:44;6.63;;;1.83;;
17913;SDS011;9082;50.742;8.238;2022-09-16T03:09:14;8.77;;;1.50;;
17913;SDS011;9082;50.742;8.238;2022-09-16T03:11:56;4.00;;;1.50;;
17913;SDS011;9082;50.742;8.238;2022-09-16T03:14:39;5.10;;;1.60;;
17913;SDS011;9082;50.742;8.238;2022-09-16T03:17:13;5.07;;;1.50;;
17913;SDS011;9082;50.742;8.238;2022-09-16T03:19:45;4.77;;;1.40;;
17913;SDS011;9082;50.742;8.238;2022-09-16T03:22:16;6.67;;;1.50;;
17913;SDS011;9082;50.742;8.238;2022-09-16T03:24:48;9.00;;;1.83;;
17913;SDS011;9082;50.742;8.238;2022-09-16T03:27:21;5.27;;;1.43;;
17913;SDS011;9082;50.742;8.238;2022-09-16T03:29:54;4.17;;;1.50;;
17913;SDS011;9082;50.742;8.238;2022-09-16T03:32:27;5.97;;;1.23;;
17913;SDS011;9082;50.742;8.238;2022-09-16T03:34:58;4.07;;;1.47;;
17913;SDS011;9082;50.742;8.238;2022-09-16T03:37:27;4.03;;;1.40;;
17913;SDS011;9082;50.742;8.238;2022-09-16T03:40:02;3.33;;;1.30;;
17913;SDS011;9082;50.742;8.238;2022-09-16T03:42:30;5.20;;;1.53;;
17913;SDS011;9082;50.742;8.238;2022-09-16T03:44:57;4.30;;;1.37;;
17913;SDS011;9082;50.742;8.238;2022-09-16T03:47:24;6.30;;;1.50;;
17913;SDS011;9082;50.742;8.238;2022-09-16T03:49:51;8.70;;;1.40;;
17913;SDS011;9082;50.742;8.238;2022-09-16T03:52:18;12.27;;;1.40;;
17913;SDS011;9082;50.742;8.238;2022-09-16T03:54:45;5.63;;;1.27;;
17913;SDS011;9082;50.742;8.238;2022-09-16T03:57:14;6.00;;;1.50;;
17913;SDS011;9082;50.742;8.238;2022-09-16T03:59:41;5.63;;;1.43;;
17913;SDS011;9082;50.742;8.238;2022-09-16T04:02:08;4.90;;;1.20;;
17913;SDS011;9082;50.742;8.238;2022-09-16T04:04:35;8.20;;;1.33;;
17913;SDS011;9082;50.742;8.238;2022-09-16T04:07:03;8.97;;;1.43;;
17913;SDS011;9082;50.742;8.238;2022-09-16T04:09:30;11.93;;;1.60;;
17913;SDS011;9082;50.742;8.238;2022-09-16T04:11:57;7.30;;;1.57;;
17913;SDS011;9082;50.742;8.238;2022-09-16T04:14:25;10.33;;;1.37;;
17913;SDS011;9082;50.742;8.238;2022-09-16T04:16:53;4.30;;;1.30;;
17913;SDS011;9082;50.742;8.238;2022-09-16T04:19:20;3.97;;;1.13;;
17913;SDS011;9082;50.742;8.238;2022-09-16T04:21:47;3.70;;;1.63;;
17913;SDS011;9082;50.742;8.238;2022-09-16T04:24:14;6.07;;;1.33;;
17913;SDS011;9082;50.742;8.238;2022-09-16T04:26:41;8.77;;;1.47;;
17913;SDS011;9082;50.742;8.238;2022-09-16T04:29:08;3.50;;;1.43;;
17913;SDS011;9082;50.742;8.238;2022-09-16T04:31:37;7.70;;;1.63;;
17913;SDS011;9082;50.742;8.238;2022-09-16T04:34:04;7.03;;;2.57;;
17913;SDS011;9082;50.742;8.238;2022-09-16T04:36:31;11.33;;;2.50;;
17913;SDS011;9082;50.742;8.238;2022-09-16T04:38:58;9.43;;;2.80;;
17913;SDS011;9082;50.742;8.238;2022-09-16T04:41:26;3.67;;;2.20;;
17913;SDS011;9082;50.742;8.238;2022-09-16T04:43:53;10.17;;;2.47;;
17913;SDS011;9082;50.742;8.238;2022-09-16T04:46:21;9.13;;;2.67;;
17913;SDS011;9082;50.742;8.238;2022-09-16T04:48:50;10.83;;;2.67;;
17913;SDS011;9082;50.742;8.238;2022-09-16T04:54:21;7.67;;;2.30;;
17913;SDS011;9082;50.742;8.238;2022-09-16T04:56:48;7.57;;;2.20;;
17913;SDS011;9082;50.742;8.238;2022-09-16T04:59:16;6.90;;;3.10;;
17913;SDS011;9082;50.742;8.238;2022-09-16T05:01:43;8.77;;;2.37;;
17913;SDS011;9082;50.742;8.238;2022-09-16T05:10:22;11.33;;;3.57;;
17913;SDS011;9082;50.742;8.238;2022-09-16T05:12:52;11.27;;;4.37;;
17913;SDS011;9082;50.742;8.238;2022-09-16T05:15:20;8.60;;;2.87;;
17913;SDS011;9082;50.742;8.238;2022-09-16T05:17:47;9.10;;;3.60;;
17913;SDS011;9082;50.742;8.238;2022-09-16T05:20:15;9.87;;;5.00;;
17913;SDS011;9082;50.742;8.238;2022-09-16T05:22:42;20.47;;;5.43;;
17913;SDS011;9082;50.742;8.238;2022-09-16T05:25:10;11.23;;;5.40;;
17913;SDS011;9082;50.742;8.238;2022-09-16T05:27:38;17.30;;;5.80;;
17913;SDS011;9082;50.742;8.238;2022-09-16T05:30:06;12.70;;;5.07;;
17913;SDS011;9082;50.742;8.238;2022-09-16T05:32:34;15.77;;;4.80;;
17913;SDS011;9082;50.742;8.238;2022-09-16T05:35:01;10.80;;;4.90;;
17913;SDS011;9082;50.742;8.238;2022-09-16T05:37:29;11.30;;;4.80;;
17913;SDS011;9082;50.742;8.238;2022-09-16T05:39:59;9.07;;;4.63;;
17913;SDS011;9082;50.742;8.238;2022-09-16T05:42:26;10.43;;;4.87;;
17913;SDS011;9082;50.742;8.238;2022-09-16T05:44:54;10.13;;;4.40;;
17913;SDS011;9082;50.742;8.238;2022-09-16T05:47:21;10.43;;;4.00;;
17913;SDS011;9082;50.742;8.238;2022-09-16T05:49:48;9.60;;;4.57;;
17913;SDS011;9082;50.742;8.238;2022-09-16T05:52:18;12.23;;;4.03;;
17913;SDS011;9082;50.742;8.238;2022-09-16T05:54:45;8.93;;;4.20;;
17913;SDS011;9082;50.742;8.238;2022-09-16T05:57:13;9.13;;;4.23;;
17913;SDS011;9082;50.742;8.238;2022-09-16T05:59:40;6.80;;;3.90;;
17913;SDS011;9082;50.742;8.238;2022-09-16T06:02:08;10.63;;;3.90;;
17913;SDS011;9082;50.742;8.238;2022-09-16T06:04:37;5.30;;;3.20;;
17913;SDS011;9082;50.742;8.238;2022-09-16T06:07:04;8.30;;;3.07;;
17913;SDS011;9082;50.742;8.238;2022-09-16T06:09:31;4.17;;;2.20;;
17913;SDS011;9082;50.742;8.238;2022-09-16T06:11:58;3.77;;;1.70;;
17913;SDS011;9082;50.742;8.238;2022-09-16T06:14:26;7.40;;;1.50;;
17913;SDS011;9082;50.742;8.238;2022-09-16T06:16:53;3.20;;;1.30;;
17913;SDS011;9082;50.742;8.238;2022-09-16T06:19:21;6.63;;;1.80;;
17913;SDS011;9082;50.742;8.238;2022-09-16T06:21:48;6.53;;;1.33;;
17913;SDS011;9082;50.742;8.238;2022-09-16T06:24:16;5.43;;;1.10;;
17913;SDS011;9082;50.742;8.238;2022-09-16T06:26:44;6.03;;;1.30;;
17913;SDS011;9082;50.742;8.238;2022-09-16T06:29:12;4.63;;;1.17;;
17913;SDS011;9082;50.742;8.238;2022-09-16T06:31:39;4.43;;;1.20;;
17913;SDS011;9082;50.742;8.238;2022-09-16T06:34:07;8.17;;;1.27;;
17913;SDS011;9082;50.742;8.238;2022-09-16T06:36:36;4.43;;;1.10;;
17913;SDS011;9082;50.742;8.238;2022-09-16T06:39:03;6.90;;;1.60;;
17913;SDS011;9082;50.742;8.238;2022-09-16T06:41:31;8.67;;;1.57;;
17913;SDS011;9082;50.742;8.238;2022-09-16T06:43:59;7.33;;;1.40;;
17913;SDS011;9082;50.742;8.238;2022-09-16T06:46:26;7.30;;;2.17;;
17913;SDS011;9082;50.742;8.238;2022-09-16T06:48:54;9.77;;;2.40;;
17913;SDS011;9082;50.742;8.238;2022-09-16T06:51:22;9.53;;;2.67;;
17913;SDS011;9082;50.742;8.238;2022-09-16T06:53:52;6.87;;;2.97;;
17913;SDS011;9082;50.742;8.238;2022-09-16T06:56:20;7.80;;;3.40;;
17913;SDS011;9082;50.742;8.238;2022-09-16T06:58:48;11.80;;;3.83;;
17913;SDS011;9082;50.742;8.238;2022-09-16T07:01:17;10.77;;;3.80;;
17913;SDS011;9082;50.742;8.238;2022-09-16T07:03:45;10.70;;;4.13;;
17913;SDS011;9082;50.742;8.238;2022-09-16T07:06:13;12.53;;;4.10;;
17913;SDS011;9082;50.742;8.238;2022-09-16T07:08:40;10.30;;;4.57;;
17913;SDS011;9082;50.742;8.238;2022-09-16T07:11:11;9.57;;;4.50;;
17913;SDS011;9082;50.742;8.238;2022-09-16T07:13:38;7.47;;;3.77;;
17913;SDS011;9082;50.742;8.238;2022-09-16T07:16:06;5.93;;;3.37;;
17913;SDS011;9082;50.742;8.238;2022-09-16T07:18:33;9.10;;;3.67;;
17913;SDS011;9082;50.742;8.238;2022-09-16T07:21:01;9.17;;;3.07;;
17913;SDS011;9082;50.742;8.238;2022-09-16T07:23:29;8.37;;;3.20;;
17913;SDS011;9082;50.742;8.238;2022-09-16T07:26:00;8.80;;;2.60;;
17913;SDS011;9082;50.742;8.238;2022-09-16T07:28:29;7.97;;;2.70;;
17913;SDS011;9082;50.742;8.238;2022-09-16T07:30:58;5.03;;;2.50;;
17913;SDS011;9082;50.742;8.238;2022-09-16T07:33:26;6.20;;;2.17;;
17913;SDS011;9082;50.742;8.238;2022-09-16T07:35:56;5.27;;;1.90;;
17913;SDS011;9082;50.742;8.238;2022-09-16T07:38:23;5.43;;;2.30;;
17913;SDS011;9082;50.742;8.238;2022-09-16T07:40:50;7.70;;;2.10;;
17913;SDS011;9082;50.742;8.238;2022-09-16T07:43:17;7.60;;;2.50;;
17913;SDS011;9082;50.742;8.238;2022-09-16T07:45:46;4.37;;;2.30;;
17913;SDS011;9082;50.742;8.238;2022-09-16T07:48:13;6.97;;;3.30;;
17913;SDS011;9082;50.742;8.238;2022-09-16T07:50:40;8.60;;;3.70;;
17913;SDS011;9082;50.742;8.238;2022-09-16T07:53:07;10.40;;;3.80;;
17913;SDS011;9082;50.742;8.238;2022-09-16T07:55:34;11.07;;;3.70;;
17913;SDS011;9082;50.742;8.238;2022-09-16T07:58:02;13.10;;;3.77;;
17913;SDS011;9082;50.742;8.238;2022-09-16T08:00:29;7.80;;;3.60;;
17913;SDS011;9082;50.742;8.238;2022-09-16T08:02:57;12.80;;;4.10;;
17913;SDS011;9082;50.742;8.238;2022-09-16T08:05:24;8.17;;;3.47;;
17913;SDS011;9082;50.742;8.238;2022-09-16T08:07:51;6.77;;;3.63;;
17913;SDS011;9082;50.742;8.238;2022-09-16T08:10:19;10.10;;;3.63;;
17913;SDS011;9082;50.742;8.238;2022-09-16T08:12:46;10.07;;;4.27;;
17913;SDS011;9082;50.742;8.238;2022-09-16T08:15:13;8.43;;;4.17;;
17913;SDS011;9082;50.742;8.238;2022-09-16T08:17:40;8.60;;;3.50;;
17913;SDS011;9082;50.742;8.238;2022-09-16T08:20:09;10.67;;;4.03;;
17913;SDS011;9082;50.742;8.238;2022-09-16T08:22:36;8.77;;;4.13;;
17913;SDS011;9082;50.742;8.238;2022-09-16T08:25:03;8.33;;;4.30;;
17913;SDS011;9082;50.742;8.238;2022-09-16T08:27:33;7.57;;;4.00;;
17913;SDS011;9082;50.742;8.238;2022-09-16T08:30:00;6.93;;;3.67;;
17913;SDS011;9082;50.742;8.238;2022-09-16T08:32:28;11.03;;;3.60;;
17913;SDS011;9082;50.742;8.238;2022-09-16T08:34:55;5.90;;;3.20;;
17913;SDS011;9082;50.742;8.238;2022-09-16T08:37:24;6.97;;;3.60;;
17913;SDS011;9082;50.742;8.238;2022-09-16T08:39:51;10.13;;;3.70;;
17913;SDS011;9082;50.742;8.238;2022-09-16T08:42:28;5.63;;;2.80;;
17913;SDS011;9082;50.742;8.238;2022-09-16T08:44:59;6.37;;;3.27;;
17913;SDS011;9082;50.742;8.238;2022-09-16T08:47:33;6.20;;;2.70;;
17913;SDS011;9082;50.742;8.238;2022-09-16T08:50:03;7.57;;;3.37;;
17913;SDS011;9082;50.742;8.238;2022-09-16T08:52:34;8.97;;;3.00;;
17913;SDS011;9082;50.742;8.238;2022-09-16T08:55:02;7.33;;;3.37;;
17913;SDS011;9082;50.742;8.238;2022-09-16T08:57:33;5.23;;;3.60;;
17913;SDS011;9082;50.742;8.238;2022-09-16T09:00:05;6.03;;;3.67;;
17913;SDS011;9082;50.742;8.238;2022-09-16T09:02:37;11.60;;;3.43;;
17913;SDS011;9082;50.742;8.238;2022-09-16T09:05:08;7.67;;;3.70;;
17913;SDS011;9082;50.742;8.238;2022-09-16T09:07:43;11.33;;;3.93;;
17913;SDS011;9082;50.742;8.238;2022-09-16T09:10:16;9.23;;;3.80;;
17913;SDS011;9082;50.742;8.238;2022-09-16T09:12:49;6.87;;;3.77;;
17913;SDS011;9082;50.742;8.238;2022-09-16T09:15:29;16.87;;;5.00;;
17913;SDS011;9082;50.742;8.238;2022-09-16T09:18:07;16.17;;;4.60;;
17913;SDS011;9082;50.742;8.238;2022-09-16T09:20:39;12.23;;;4.07;;
17913;SDS011;9082;50.742;8.238;2022-09-16T09:23:16;9.27;;;4.17;;
17913;SDS011;9082;50.742;8.238;2022-09-16T09:25:48;9.40;;;4.40;;
17913;SDS011;9082;50.742;8.238;2022-09-16T09:28:21;8.87;;;5.00;;
17913;SDS011;9082;50.742;8.238;2022-09-16T09:30:53;6.63;;;4.33;;
17913;SDS011;9082;50.742;8.238;2022-09-16T09:33:23;6.87;;;4.43;;
17913;SDS011;9082;50.742;8.238;2022-09-16T09:35:56;8.00;;;4.43;;
17913;SDS011;9082;50.742;8.238;2022-09-16T09:38:41;13.47;;;4.70;;
17913;SDS011;9082;50.742;8.238;2022-09-16T09:41:11;6.27;;;3.83;;
17913;SDS011;9082;50.742;8.238;2022-09-16T09:43:40;7.53;;;3.40;;
17913;SDS011;9082;50.742;8.238;2022-09-16T09:46:10;5.67;;;3.60;;
17913;SDS011;9082;50.742;8.238;2022-09-16T09:48:40;7.20;;;2.53;;
17913;SDS011;9082;50.742;8.238;2022-09-16T09:51:10;10.73;;;2.70;;
17913;SDS011;9082;50.742;8.238;2022-09-16T09:53:41;4.50;;;2.17;;
17913;SDS011;9082;50.742;8.238;2022-09-16T09:56:13;12.00;;;2.90;;
17913;SDS011;9082;50.742;8.238;2022-09-16T09:58:42;4.67;;;2.03;;
17913;SDS011;9082;50.742;8.238;2022-09-16T10:01:10;4.47;;;2.00;;
17913;SDS011;9082;50.742;8.238;2022-09-16T10:03:37;4.70;;;2.23;;
17913;SDS011;9082;50.742;8.238;2022-09-16T10:06:04;5.33;;;2.80;;
17913;SDS011;9082;50.742;8.238;2022-09-16T10:08:33;5.77;;;2.37;;
17913;SDS011;9082;50.742;8.238;2022-09-16T10:11:13;4.73;;;2.40;;
17913;SDS011;9082;50.742;8.238;2022-09-16T10:13:46;7.93;;;2.90;;
17913;SDS011;9082;50.742;8.238;2022-09-16T10:16:15;3.57;;;2.47;;
17913;SDS011;9082;50.742;8.238;2022-09-16T10:18:44;6.17;;;2.40;;
17913;SDS011;9082;50.742;8.238;2022-09-16T10:21:18;3.67;;;2.23;;
17913;SDS011;9082;50.742;8.238;2022-09-16T10:23:52;6.00;;;2.60;;
17913;SDS011;9082;50.742;8.238;2022-09-16T10:26:21;7.70;;;3.53;;
17913;SDS011;9082;50.742;8.238;2022-09-16T10:28:52;10.93;;;2.93;;
17913;SDS011;9082;50.742;8.238;2022-09-16T10:31:20;6.73;;;3.33;;
17913;SDS011;9082;50.742;8.238;2022-09-16T10:33:47;6.87;;;2.87;;
17913;SDS011;9082;50.742;8.238;2022-09-16T10:36:16;4.33;;;2.47;;
17913;SDS011;9082;50.742;8.238;2022-09-16T10:38:45;5.07;;;2.90;;
17913;SDS011;9082;50.742;8.238;2022-09-16T10:41:14;5.57;;;2.33;;
17913;SDS011;9082;50.742;8.238;2022-09-16T10:43:46;3.43;;;1.90;;
17913;SDS011;9082;50.742;8.238;2022-09-16T10:46:14;5.27;;;1.80;;
17913;SDS011;9082;50.742;8.238;2022-09-16T10:48:42;1.57;;;1.23;;
17913;SDS011;9082;50.742;8.238;2022-09-16T10:51:18;2.40;;;1.50;;
17913;SDS011;9082;50.742;8.238;2022-09-16T10:53:50;4.03;;;1.20;;
17913;SDS011;9082;50.742;8.238;2022-09-16T10:56:18;2.53;;;1.00;;
17913;SDS011;9082;50.742;8.238;2022-09-16T10:58:47;2.97;;;1.27;;
17913;SDS011;9082;50.742;8.238;2022-09-16T11:01:22;2.20;;;1.03;;
17913;SDS011;9082;50.742;8.238;2022-09-16T11:06:42;2.97;;;1.20;;
17913;SDS011;9082;50.742;8.238;2022-09-16T11:09:16;3.10;;;0.97;;
17913;SDS011;9082;50.742;8.238;2022-09-16T11:11:50;3.30;;;0.90;;
17913;SDS011;9082;50.742;8.238;2022-09-16T11:14:24;1.27;;;0.70;;
17913;SDS011;9082;50.742;8.238;2022-09-16T11:17:02;1.80;;;0.80;;
17913;SDS011;9082;50.742;8.238;2022-09-16T11:19:36;3.77;;;0.80;;
17913;SDS011;9082;50.742;8.238;2022-09-16T11:22:06;1.33;;;0.60;;
17913;SDS011;9082;50.742;8.238;2022-09-16T11:24:46;3.97;;;0.83;;
17913;SDS011;9082;50.742;8.238;2022-09-16T11:27:20;2.70;;;0.97;;
17913;SDS011;9082;50.742;8.238;2022-09-16T11:29:58;3.37;;;0.80;;
17913;SDS011;9082;50.742;8.238;2022-09-16T11:32:29;5.70;;;1.30;;
17913;SDS011;9082;50.742;8.238;2022-09-16T11:35:06;9.23;;;2.43;;
17913;SDS011;9082;50.742;8.238;2022-09-16T11:37:42;1.57;;;0.90;;
17913;SDS011;9082;50.742;8.238;2022-09-16T11:40:14;2.27;;;1.07;;
17913;SDS011;9082;50.742;8.238;2022-09-16T11:42:45;3.67;;;1.13;;
17913;SDS011;9082;50.742;8.238;2022-09-16T11:45:25;1.57;;;0.83;;
17913;SDS011;9082;50.742;8.238;2022-09-16T11:47:59;3.70;;;0.83;;
17913;SDS011;9082;50.742;8.238;2022-09-16T11:50:33;3.97;;;1.07;;
17913;SDS011;9082;50.742;8.238;2022-09-16T11:55:50;2.13;;;0.93;;
17913;SDS011;9082;50.742;8.238;2022-09-16T11:58:20;2.53;;;0.97;;
17913;SDS011;9082;50.742;8.238;2022-09-16T12:00:52;2.70;;;1.10;;
17913;SDS011;9082;50.742;8.238;2022-09-16T12:03:22;4.27;;;1.10;;
17913;SDS011;9082;50.742;8.238;2022-09-16T12:05:52;2.17;;;1.10;;
17913;SDS011;9082;50.742;8.238;2022-09-16T12:08:21;2.40;;;1.00;;
17913;SDS011;9082;50.742;8.238;2022-09-16T12:10:51;3.13;;;1.00;;
17913;SDS011;9082;50.742;8.238;2022-09-16T12:13:20;7.50;;;1.00;;
17913;SDS011;9082;50.742;8.238;2022-09-16T12:15:49;1.93;;;0.90;;
17913;SDS011;9082;50.742;8.238;2022-09-16T12:18:19;2.40;;;0.80;;
17913;SDS011;9082;50.742;8.238;2022-09-16T12:20:49;4.47;;;0.80;;
17913;SDS011;9082;50.742;8.238;2022-09-16T12:23:17;2.93;;;0.97;;
17913;SDS011;9082;50.742;8.238;2022-09-16T12:25:51;2.07;;;0.60;;
17913;SDS011;9082;50.742;8.238;2022-09-16T12:28:22;3.03;;;0.67;;
17913;SDS011;9082;50.742;8.238;2022-09-16T12:30:52;2.63;;;0.50;;
17913;SDS011;9082;50.742;8.238;2022-09-16T12:33:23;5.40;;;0.70;;
17913;SDS011;9082;50.742;8.238;2022-09-16T12:35:53;1.90;;;0.50;;
17913;SDS011;9082;50.742;8.238;2022-09-16T12:38:21;1.87;;;0.70;;
17913;SDS011;9082;50.742;8.238;2022-09-16T12:40:55;4.77;;;0.73;;
17913;SDS011;9082;50.742;8.238;2022-09-16T12:43:34;5.03;;;0.83;;
17913;SDS011;9082;50.742;8.238;2022-09-16T12:46:21;3.40;;;0.90;;
17913;SDS011;9082;50.742;8.238;2022-09-16T12:51:47;0.93;;;0.67;;
17913;SDS011;9082;50.742;8.238;2022-09-16T12:54:25;2.47;;;0.70;;
17913;SDS011;9082;50.742;8.238;2022-09-16T12:57:05;7.57;;;0.87;;
17913;SDS011;9082;50.742;8.238;2022-09-16T12:59:46;2.40;;;0.80;;
17913;SDS011;9082;50.742;8.238;2022-09-16T13:02:16;3.10;;;0.57;;
17913;SDS011;9082;50.742;8.238;2022-09-16T13:04:45;2.13;;;0.80;;
17913;SDS011;9082;50.742;8.238;2022-09-16T13:07:22;10.17;;;0.73;;
17913;SDS011;9082;50.742;8.238;2022-09-16T13:09:58;1.30;;;0.60;;
17913;SDS011;9082;50.742;8.238;2022-09-16T13:12:26;3.73;;;0.40;;
17913;SDS011;9082;50.742;8.238;2022-09-16T13:14:54;2.30;;;0.50;;
17913;SDS011;9082;50.742;8.238;2022-09-16T13:17:26;3.90;;;0.30;;
17913;SDS011;9082;50.742;8.238;2022-09-16T13:19:53;0.60;;;0.30;;
17913;SDS011;9082;50.742;8.238;2022-09-16T13:22:25;1.07;;;0.40;;
17913;SDS011;9082;50.742;8.238;2022-09-16T13:24:54;2.60;;;0.40;;
17913;SDS011;9082;50.742;8.238;2022-09-16T13:27:25;1.10;;;0.50;;
17913;SDS011;9082;50.742;8.238;2022-09-16T13:30:04;2.67;;;0.50;;
17913;SDS011;9082;50.742;8.238;2022-09-16T13:32:36;4.00;;;0.57;;
17913;SDS011;9082;50.742;8.238;2022-09-16T13:35:04;3.77;;;0.50;;
17913;SDS011;9082;50.742;8.238;2022-09-16T13:37:33;2.17;;;0.63;;
17913;SDS011;9082;50.742;8.238;2022-09-16T13:40:16;5.90;;;0.70;;
17913;SDS011;9082;50.742;8.238;2022-09-16T13:42:44;1.00;;;0.50;;
17913;SDS011;9082;50.742;8.238;2022-09-16T13:45:30;5.57;;;0.60;;
17913;SDS011;9082;50.742;8.238;2022-09-16T13:47:58;1.63;;;0.50;;
17913;SDS011;9082;50.742;8.238;2022-09-16T13:50:28;3.27;;;0.70;;
17913;SDS011;9082;50.742;8.238;2022-09-16T13:52:56;1.03;;;0.67;;
17913;SDS011;9082;50.742;8.238;2022-09-16T13:55:34;0.97;;;0.40;;
17913;SDS011;9082;50.742;8.238;2022-09-16T13:58:04;1.37;;;0.50;;
17913;SDS011;9082;50.742;8.238;2022-09-16T14:00:35;0.60;;;0.40;;
17913;SDS011;9082;50.742;8.238;2022-09-16T14:08:40;0.97;;;0.40;;
17913;SDS011;9082;50.742;8.238;2022-09-16T14:11:12;0.90;;;0.50;;
17913;SDS011;9082;50.742;8.238;2022-09-16T14:13:41;1.10;;;0.50;;
17913;SDS011;9082;50.742;8.238;2022-09-16T14:16:12;1.77;;;0.63;;
17913;SDS011;9082;50.742;8.238;2022-09-16T14:18:40;0.90;;;0.50;;
17913;SDS011;9082;50.742;8.238;2022-09-16T14:21:15;2.07;;;0.40;;
17913;SDS011;9082;50.742;8.238;2022-09-16T14:23:44;2.97;;;0.90;;
17913;SDS011;9082;50.742;8.238;2022-09-16T14:26:13;6.47;;;1.63;;
17913;SDS011;9082;50.742;8.238;2022-09-16T14:28:40;2.87;;;0.60;;
17913;SDS011;9082;50.742;8.238;2022-09-16T14:31:08;3.03;;;0.90;;
17913;SDS011;9082;50.742;8.238;2022-09-16T14:33:37;3.27;;;0.70;;
17913;SDS011;9082;50.742;8.238;2022-09-16T14:36:07;1.63;;;0.63;;
17913;SDS011;9082;50.742;8.238;2022-09-16T14:38:36;3.07;;;0.60;;
17913;SDS011;9082;50.742;8.238;2022-09-16T14:41:05;2.53;;;0.60;;
17913;SDS011;9082;50.742;8.238;2022-09-16T14:43:33;2.47;;;0.70;;
17913;SDS011;9082;50.742;8.238;2022-09-16T14:46:02;1.73;;;0.60;;
17913;SDS011;9082;50.742;8.238;2022-09-16T14:48:37;1.17;;;0.90;;
17913;SDS011;9082;50.742;8.238;2022-09-16T14:51:08;1.63;;;0.80;;
17913;SDS011;9082;50.742;8.238;2022-09-16T14:53:37;1.60;;;0.70;;
17913;SDS011;9082;50.742;8.238;2022-09-16T14:56:14;1.77;;;0.50;;
17913;SDS011;9082;50.742;8.238;2022-09-16T14:58:43;0.60;;;0.40;;
17913;SDS011;9082;50.742;8.238;2022-09-16T15:01:12;1.63;;;0.57;;
17913;SDS011;9082;50.742;8.238;2022-09-16T15:03:43;0.40;;;0.30;;
17913;SDS011;9082;50.742;8.238;2022-09-16T15:06:12;2.17;;;0.60;;
17913;SDS011;9082;50.742;8.238;2022-09-16T15:08:42;1.80;;;0.47;;
17913;SDS011;9082;50.742;8.238;2022-09-16T15:11:13;2.40;;;0.50;;
17913;SDS011;9082;50.742;8.238;2022-09-16T15:57:17;1.10;;;0.77;;
17913;SDS011;9082;50.742;8.238;2022-09-16T15:59:49;2.27;;;0.83;;
17913;SDS011;9082;50.742;8.238;2022-09-16T16:02:30;1.90;;;0.90;;
17913;SDS011;9082;50.742;8.238;2022-09-16T16:05:03;2.40;;;1.07;;
17913;SDS011;9082;50.742;8.238;2022-09-16T16:07:41;3.70;;;0.90;;
17913;SDS011;9082;50.742;8.238;2022-09-16T16:10:12;2.10;;;1.13;;
17913;SDS011;9082;50.742;8.238;2022-09-16T16:12:42;3.03;;;1.10;;
17913;SDS011;9082;50.742;8.238;2022-09-16T16:15:12;2.50;;;1.10;;
17913;SDS011;9082;50.742;8.238;2022-09-16T16:17:41;2.03;;;1.13;;
17913;SDS011;9082;50.742;8.238;2022-09-16T16:20:09;5.07;;;1.10;;
17913;SDS011;9082;50.742;8.238;2022-09-16T16:22:37;3.87;;;1.40;;
17913;SDS011;9082;50.742;8.238;2022-09-16T16:25:05;3.90;;;1.60;;
17913;SDS011;9082;50.742;8.238;2022-09-16T16:27:32;5.33;;;1.73;;